This is the latest recevied weather packets stored in our database for station/object AE7VB. If no packets are shown the sender has not sent any weather packets the latest 10 day(s).
| Time | Temp. | Humidity | Pressure | Rain* | Wind** | Luminosity | Snow |
|---|---|---|---|---|---|---|---|
| 1777618778 | 8.33° C | 59% | 1024.8 hPa | 0 mm | - | - | - |
| 1777618166 | 8.89° C | 59% | 1024.7 hPa | 0 mm | - | - | - |
| 1777615129 | 8.89° C | 59% | 1024.3 hPa | 0 mm | - | - | - |
| 1777612125 | 9.44° C | 57% | 1023.9 hPa | 0 mm | - | - | - |
| 1777610259 | 10° C | 55% | 1023.7 hPa | 0 mm | - | - | - |
| 1777605450 | 12.22° C | 54% | 1023 hPa | 0 mm | - | - | - |
| 1777603617 | 15.56° C | 48% | 1023.6 hPa | 0 mm | - | - | - |
| 1777601212 | 18.33° C | 32% | 1023.8 hPa | 0 mm | - | - | - |
| 1777597606 | 20° C | 28% | 1023.3 hPa | 0 mm | - | - | - |
| 1777597006 | 19.44° C | 28% | 1023.4 hPa | 0 mm | - | - | - |
| 1777593968 | 18.89° C | 30% | 1023.7 hPa | 0 mm | - | - | - |
| 1777592040 | 18.33° C | 34% | 1024.2 hPa | 0 mm | - | - | - |
| 1777591440 | 18.33° C | 35% | 1024.2 hPa | 0 mm | - | - | - |
| 1777590839 | 18.33° C | 32% | 1024.2 hPa | 0 mm | - | - | - |
| 1777589005 | 18.89° C | 32% | 1024.8 hPa | 0 mm | - | - | - |
| 1777585969 | 18.89° C | 31% | 1025 hPa | 0 mm | - | - | - |
| 1777581099 | 17.78° C | 43% | 1025.9 hPa | 0 mm | - | - | - |
| 1777578093 | 17.22° C | 47% | 1026.5 hPa | 0 mm | - | - | - |
| 1777571959 | 13.89° C | 57% | 1026.9 hPa | 0 mm | - | - | - |
| 1777570093 | 13.89° C | 62% | 1027.3 hPa | 0 mm | - | - | - |
| 1777567627 | 11.11° C | 71% | 1026.9 hPa | 0 mm | - | - | - |
| 1777567026 | 11.11° C | 67% | 1027.1 hPa | 0 mm | - | - | - |
| 1777565192 | 10° C | 70% | 1027 hPa | 0 mm | - | - | - |
| 1777563389 | 8.89° C | 73% | 1027.4 hPa | 0 mm | - | - | - |
| 1777560984 | 8.33° C | 77% | 1028 hPa | 0 mm | - | - | - |
* Rain latest hour (hover to see other rain measurements)
** Current wind speed in m/s (hover to see current wind gust speed)